Great — TCYV6 — position and weather

sailwx.info

Track history (hours):
 
Tides and Currents Weather Stations Pressure Air Temp Water Temp Dewpoint Dewpoint Depression Visibility Wind Speed Wind Dir Waves Ship Positions

Great

Last reported at 2016-Apr-28 03:33 UTC. Time now 2016-May-01 00:27 UTC.
Position N 39°18' E 001°57'.

Length 186 m; draft 10.6 m.

Type: Cargo ship. MMSI: 271042241.

Date/timePositionNaut miles runAvg speedWind from/ knotsBaromVisibWave heightAir tempDewpointWater temp
2016-Apr-28 03:33N 39°18' E 001°57'1111.0
2016-Apr-28 02:33N 39°14' E 002°10'1211.0
2016-Apr-28 01:31N 39°09' E 002°23'1111.1
2016-Apr-28 00:33N 39°05' E 002°36'1110.9
2016-Apr-27 23:32N 39°01' E 002°49'1010.4
2016-Apr-27 22:33N 38°58' E 003°02'51310.5
2016-Apr-25 21:31N 37°02' E 013°37'8 8.4
2016-Apr-25 20:33N 36°58' E 013°46'8 7.7
2016-Apr-25 19:33N 36°54' E 013°54'7 7.5
2016-Apr-25 18:33N 36°51' E 014°03'7 7.4
2016-Apr-25 17:33N 36°48' E 014°11'6 6.4
2016-Apr-25 16:33N 36°45' E 014°18'6 5.8
2016-Apr-25 15:33N 36°43' E 014°25'6 5.5
2016-Apr-25 14:33N 36°41' E 014°31'5 5.5
2016-Apr-25 13:33N 36°38' E 014°37'  
2016-Apr-23 06:06N 36°52' E 026°13'2010.8
2016-Apr-23 04:16N 37°02' E 026°34'811.0
2016-Apr-23 03:30N 37°09' E 026°40'  
Track history (hours):
 
Tides and Currents Weather Stations Pressure Air Temp Water Temp Dewpoint Dewpoint Depression Visibility Wind Speed Wind Dir Waves Ship Positions

Great

Last reported at 2016-Apr-28 03:33 UTC. Time now 2016-May-01 00:27 UTC.
Position N 39°18' E 001°57'.

Length 186 m; draft 10.6 m.

Type: Cargo ship. MMSI: 271042241.

Date/timePositionNaut miles runAvg speedWind from/ knotsBaromVisibWave heightAir tempDewpointWater temp
2016-Apr-28 03:33N 39°18' E 001°57'1111.0
2016-Apr-28 02:33N 39°14' E 002°10'1211.0
2016-Apr-28 01:31N 39°09' E 002°23'1111.1
2016-Apr-28 00:33N 39°05' E 002°36'1110.9
2016-Apr-27 23:32N 39°01' E 002°49'1010.4
2016-Apr-27 22:33N 38°58' E 003°02'51310.5
2016-Apr-25 21:31N 37°02' E 013°37'8 8.4
2016-Apr-25 20:33N 36°58' E 013°46'8 7.7
2016-Apr-25 19:33N 36°54' E 013°54'7 7.5
2016-Apr-25 18:33N 36°51' E 014°03'7 7.4
2016-Apr-25 17:33N 36°48' E 014°11'6 6.4
2016-Apr-25 16:33N 36°45' E 014°18'6 5.8
2016-Apr-25 15:33N 36°43' E 014°25'6 5.5
2016-Apr-25 14:33N 36°41' E 014°31'5 5.5
2016-Apr-25 13:33N 36°38' E 014°37'  
2016-Apr-23 06:06N 36°52' E 026°13'2010.8
2016-Apr-23 04:16N 37°02' E 026°34'811.0
2016-Apr-23 03:30N 37°09' E 026°40'  

Dump ship's entire track history